sensor_id;sensor_type;location;lat;lon;timestamp;temperature;humidity
13572;DHT22;6857;53.484;10.216;2023-11-21T00:00:20;9.20;99.90
13572;DHT22;6857;53.484;10.216;2023-11-21T00:02:46;9.10;99.90
13572;DHT22;6857;53.484;10.216;2023-11-21T00:05:13;9.10;99.90
13572;DHT22;6857;53.484;10.216;2023-11-21T00:07:40;9.10;99.90
13572;DHT22;6857;53.484;10.216;2023-11-21T00:10:07;9.10;99.90
13572;DHT22;6857;53.484;10.216;2023-11-21T00:12:34;9.00;99.90
13572;DHT22;6857;53.484;10.216;2023-11-21T00:15:00;9.00;99.90
13572;DHT22;6857;53.484;10.216;2023-11-21T00:17:27;9.00;99.90
13572;DHT22;6857;53.484;10.216;2023-11-21T00:19:53;9.00;99.90
13572;DHT22;6857;53.484;10.216;2023-11-21T00:22:19;8.90;99.90
13572;DHT22;6857;53.484;10.216;2023-11-21T00:24:45;8.90;99.90
13572;DHT22;6857;53.484;10.216;2023-11-21T00:27:11;8.80;99.90
13572;DHT22;6857;53.484;10.216;2023-11-21T00:29:37;8.80;99.90
13572;DHT22;6857;53.484;10.216;2023-11-21T00:32:04;8.80;99.90
13572;DHT22;6857;53.484;10.216;2023-11-21T00:34:31;8.70;99.90
13572;DHT22;6857;53.484;10.216;2023-11-21T00:36:57;8.60;99.90
13572;DHT22;6857;53.484;10.216;2023-11-21T00:39:22;8.50;99.90
13572;DHT22;6857;53.484;10.216;2023-11-21T00:41:49;8.50;99.90
13572;DHT22;6857;53.484;10.216;2023-11-21T00:44:14;8.40;99.90
13572;DHT22;6857;53.484;10.216;2023-11-21T00:46:41;8.40;99.90
13572;DHT22;6857;53.484;10.216;2023-11-21T00:49:07;8.30;99.90
13572;DHT22;6857;53.484;10.216;2023-11-21T00:51:33;8.30;99.90
13572;DHT22;6857;53.484;10.216;2023-11-21T00:53:59;8.20;99.90
13572;DHT22;6857;53.484;10.216;2023-11-21T00:56:24;8.10;99.90
13572;DHT22;6857;53.484;10.216;2023-11-21T00:58:50;8.10;99.90
13572;DHT22;6857;53.484;10.216;2023-11-21T01:01:20;8.10;99.90
13572;DHT22;6857;53.484;10.216;2023-11-21T01:03:47;8.00;99.90
13572;DHT22;6857;53.484;10.216;2023-11-21T01:06:13;8.00;99.90
13572;DHT22;6857;53.484;10.216;2023-11-21T01:08:38;8.00;99.90
13572;DHT22;6857;53.484;10.216;2023-11-21T01:11:04;8.00;99.90
13572;DHT22;6857;53.484;10.216;2023-11-21T01:13:33;7.90;99.90
13572;DHT22;6857;53.484;10.216;2023-11-21T01:15:58;7.90;99.90
13572;DHT22;6857;53.484;10.216;2023-11-21T01:18:24;7.90;99.90
13572;DHT22;6857;53.484;10.216;2023-11-21T01:20:54;7.80;99.90
13572;DHT22;6857;53.484;10.216;2023-11-21T01:23:20;7.80;99.90
13572;DHT22;6857;53.484;10.216;2023-11-21T01:25:45;7.80;99.90
13572;DHT22;6857;53.484;10.216;2023-11-21T01:28:11;7.70;99.90
13572;DHT22;6857;53.484;10.216;2023-11-21T01:30:37;7.60;99.90
13572;DHT22;6857;53.484;10.216;2023-11-21T01:33:03;7.70;99.90
13572;DHT22;6857;53.484;10.216;2023-11-21T01:35:29;7.60;99.90
13572;DHT22;6857;53.484;10.216;2023-11-21T01:37:54;7.60;99.90
13572;DHT22;6857;53.484;10.216;2023-11-21T01:40:20;7.60;99.90
13572;DHT22;6857;53.484;10.216;2023-11-21T01:42:46;7.60;99.90
13572;DHT22;6857;53.484;10.216;2023-11-21T01:45:13;7.60;99.90
13572;DHT22;6857;53.484;10.216;2023-11-21T01:47:44;7.60;99.90
13572;DHT22;6857;53.484;10.216;2023-11-21T01:50:14;7.60;99.90
13572;DHT22;6857;53.484;10.216;2023-11-21T01:52:43;7.50;99.90
13572;DHT22;6857;53.484;10.216;2023-11-21T01:55:10;7.50;99.90
13572;DHT22;6857;53.484;10.216;2023-11-21T01:57:38;7.50;99.90
13572;DHT22;6857;53.484;10.216;2023-11-21T02:00:05;7.50;99.90
13572;DHT22;6857;53.484;10.216;2023-11-21T02:02:48;7.50;99.90
13572;DHT22;6857;53.484;10.216;2023-11-21T02:05:15;7.50;99.90
13572;DHT22;6857;53.484;10.216;2023-11-21T02:07:45;7.50;99.90
13572;DHT22;6857;53.484;10.216;2023-11-21T02:10:14;7.50;99.90
13572;DHT22;6857;53.484;10.216;2023-11-21T02:12:44;7.50;99.90
13572;DHT22;6857;53.484;10.216;2023-11-21T02:15:12;7.50;99.90
13572;DHT22;6857;53.484;10.216;2023-11-21T02:17:42;7.50;99.90
13572;DHT22;6857;53.484;10.216;2023-11-21T02:20:13;7.50;99.90
13572;DHT22;6857;53.484;10.216;2023-11-21T02:22:48;7.50;99.90
13572;DHT22;6857;53.484;10.216;2023-11-21T02:25:14;7.50;99.90
13572;DHT22;6857;53.484;10.216;2023-11-21T02:27:39;7.50;99.90
13572;DHT22;6857;53.484;10.216;2023-11-21T02:30:05;7.40;99.90
13572;DHT22;6857;53.484;10.216;2023-11-21T02:32:33;7.40;99.90
13572;DHT22;6857;53.484;10.216;2023-11-21T02:34:59;7.40;99.90
13572;DHT22;6857;53.484;10.216;2023-11-21T02:37:28;7.40;99.90
13572;DHT22;6857;53.484;10.216;2023-11-21T02:39:53;7.40;99.90
13572;DHT22;6857;53.484;10.216;2023-11-21T02:42:19;7.40;99.90
13572;DHT22;6857;53.484;10.216;2023-11-21T02:44:47;7.30;99.90
13572;DHT22;6857;53.484;10.216;2023-11-21T02:47:12;7.30;99.90
13572;DHT22;6857;53.484;10.216;2023-11-21T02:49:38;7.30;99.90
13572;DHT22;6857;53.484;10.216;2023-11-21T02:52:04;7.40;99.90
13572;DHT22;6857;53.484;10.216;2023-11-21T02:54:30;7.40;99.90
13572;DHT22;6857;53.484;10.216;2023-11-21T02:56:55;7.40;99.90
13572;DHT22;6857;53.484;10.216;2023-11-21T02:59:21;7.30;99.90
13572;DHT22;6857;53.484;10.216;2023-11-21T03:01:46;7.40;99.90
13572;DHT22;6857;53.484;10.216;2023-11-21T03:04:12;7.40;99.90
13572;DHT22;6857;53.484;10.216;2023-11-21T03:06:43;7.30;99.90
13572;DHT22;6857;53.484;10.216;2023-11-21T03:09:09;7.30;99.90
13572;DHT22;6857;53.484;10.216;2023-11-21T03:11:35;7.30;99.90
13572;DHT22;6857;53.484;10.216;2023-11-21T03:14:00;7.30;99.90
13572;DHT22;6857;53.484;10.216;2023-11-21T03:16:26;7.30;99.90
13572;DHT22;6857;53.484;10.216;2023-11-21T03:18:52;7.30;99.90
13572;DHT22;6857;53.484;10.216;2023-11-21T03:21:17;7.30;99.90
13572;DHT22;6857;53.484;10.216;2023-11-21T03:23:43;7.30;99.90
13572;DHT22;6857;53.484;10.216;2023-11-21T03:26:12;7.30;99.90
13572;DHT22;6857;53.484;10.216;2023-11-21T03:28:38;7.30;99.90
13572;DHT22;6857;53.484;10.216;2023-11-21T03:31:04;7.30;99.90
13572;DHT22;6857;53.484;10.216;2023-11-21T03:33:29;7.40;99.90
13572;DHT22;6857;53.484;10.216;2023-11-21T03:35:55;7.40;99.90
13572;DHT22;6857;53.484;10.216;2023-11-21T03:38:20;7.30;99.90
13572;DHT22;6857;53.484;10.216;2023-11-21T03:40:46;7.30;99.90
13572;DHT22;6857;53.484;10.216;2023-11-21T03:43:13;7.30;99.90
13572;DHT22;6857;53.484;10.216;2023-11-21T03:45:39;7.20;99.90
13572;DHT22;6857;53.484;10.216;2023-11-21T03:48:06;7.30;99.90
13572;DHT22;6857;53.484;10.216;2023-11-21T03:50:31;7.30;99.90
13572;DHT22;6857;53.484;10.216;2023-11-21T03:53:00;7.30;99.90
13572;DHT22;6857;53.484;10.216;2023-11-21T03:55:26;7.30;99.90
13572;DHT22;6857;53.484;10.216;2023-11-21T03:57:52;7.30;99.90
13572;DHT22;6857;53.484;10.216;2023-11-21T04:00:18;7.30;99.90
13572;DHT22;6857;53.484;10.216;2023-11-21T04:02:45;7.30;99.90
13572;DHT22;6857;53.484;10.216;2023-11-21T04:05:11;7.30;99.90
13572;DHT22;6857;53.484;10.216;2023-11-21T04:07:37;7.30;99.90
13572;DHT22;6857;53.484;10.216;2023-11-21T04:10:04;7.20;99.90
13572;DHT22;6857;53.484;10.216;2023-11-21T04:12:32;7.20;99.90
13572;DHT22;6857;53.484;10.216;2023-11-21T04:14:58;7.20;99.90
13572;DHT22;6857;53.484;10.216;2023-11-21T04:17:23;7.20;99.90
13572;DHT22;6857;53.484;10.216;2023-11-21T04:19:49;7.20;99.90
13572;DHT22;6857;53.484;10.216;2023-11-21T04:22:15;7.20;99.90
13572;DHT22;6857;53.484;10.216;2023-11-21T04:24:40;7.20;99.90
13572;DHT22;6857;53.484;10.216;2023-11-21T04:27:06;7.20;99.90
13572;DHT22;6857;53.484;10.216;2023-11-21T04:29:31;7.20;99.90
13572;DHT22;6857;53.484;10.216;2023-11-21T04:31:57;7.20;99.90
13572;DHT22;6857;53.484;10.216;2023-11-21T04:34:22;7.20;99.90
13572;DHT22;6857;53.484;10.216;2023-11-21T04:36:50;7.10;99.90
13572;DHT22;6857;53.484;10.216;2023-11-21T04:39:15;7.10;99.90
13572;DHT22;6857;53.484;10.216;2023-11-21T04:41:41;7.10;99.90
13572;DHT22;6857;53.484;10.216;2023-11-21T04:44:06;7.10;99.90
13572;DHT22;6857;53.484;10.216;2023-11-21T04:46:32;7.10;99.90
13572;DHT22;6857;53.484;10.216;2023-11-21T04:49:01;7.10;99.90
13572;DHT22;6857;53.484;10.216;2023-11-21T04:51:26;7.10;99.90
13572;DHT22;6857;53.484;10.216;2023-11-21T04:53:52;7.10;99.90
13572;DHT22;6857;53.484;10.216;2023-11-21T04:56:18;7.20;99.90
13572;DHT22;6857;53.484;10.216;2023-11-21T04:58:43;7.20;99.90
13572;DHT22;6857;53.484;10.216;2023-11-21T05:01:09;7.20;99.90
13572;DHT22;6857;53.484;10.216;2023-11-21T05:03:35;7.20;99.90
13572;DHT22;6857;53.484;10.216;2023-11-21T05:06:00;7.20;99.90
13572;DHT22;6857;53.484;10.216;2023-11-21T05:08:26;7.20;99.90
13572;DHT22;6857;53.484;10.216;2023-11-21T05:10:52;7.10;99.90
13572;DHT22;6857;53.484;10.216;2023-11-21T05:13:19;7.10;99.90
13572;DHT22;6857;53.484;10.216;2023-11-21T05:15:45;7.10;99.90
13572;DHT22;6857;53.484;10.216;2023-11-21T05:18:11;7.10;99.90
13572;DHT22;6857;53.484;10.216;2023-11-21T05:20:39;7.20;99.90
13572;DHT22;6857;53.484;10.216;2023-11-21T05:23:06;7.10;99.90
13572;DHT22;6857;53.484;10.216;2023-11-21T05:25:32;7.10;99.90
13572;DHT22;6857;53.484;10.216;2023-11-21T05:27:57;7.20;99.90
13572;DHT22;6857;53.484;10.216;2023-11-21T05:30:26;7.20;99.90
13572;DHT22;6857;53.484;10.216;2023-11-21T05:32:52;7.10;99.90
13572;DHT22;6857;53.484;10.216;2023-11-21T05:35:17;7.20;99.90
13572;DHT22;6857;53.484;10.216;2023-11-21T05:37:44;7.10;99.90
13572;DHT22;6857;53.484;10.216;2023-11-21T05:40:11;7.10;99.90
13572;DHT22;6857;53.484;10.216;2023-11-21T05:42:39;7.10;99.90
13572;DHT22;6857;53.484;10.216;2023-11-21T05:45:06;7.10;99.90
13572;DHT22;6857;53.484;10.216;2023-11-21T05:47:40;7.10;99.90
13572;DHT22;6857;53.484;10.216;2023-11-21T05:50:10;7.10;99.90
13572;DHT22;6857;53.484;10.216;2023-11-21T05:52:38;7.10;99.90
13572;DHT22;6857;53.484;10.216;2023-11-21T05:55:05;7.10;99.90
13572;DHT22;6857;53.484;10.216;2023-11-21T05:57:33;7.10;99.90
13572;DHT22;6857;53.484;10.216;2023-11-21T06:00:05;7.10;99.90
13572;DHT22;6857;53.484;10.216;2023-11-21T06:02:40;7.10;99.90
13572;DHT22;6857;53.484;10.216;2023-11-21T06:05:07;7.10;99.90
13572;DHT22;6857;53.484;10.216;2023-11-21T06:07:33;7.10;99.90
13572;DHT22;6857;53.484;10.216;2023-11-21T06:09:59;7.10;99.90
13572;DHT22;6857;53.484;10.216;2023-11-21T06:12:24;7.10;99.90
13572;DHT22;6857;53.484;10.216;2023-11-21T06:14:50;7.10;99.90
13572;DHT22;6857;53.484;10.216;2023-11-21T06:17:16;7.20;99.90
13572;DHT22;6857;53.484;10.216;2023-11-21T06:19:43;7.10;99.90
13572;DHT22;6857;53.484;10.216;2023-11-21T06:22:11;7.10;99.90
13572;DHT22;6857;53.484;10.216;2023-11-21T06:24:36;7.10;99.90
13572;DHT22;6857;53.484;10.216;2023-11-21T06:27:04;7.10;99.90
13572;DHT22;6857;53.484;10.216;2023-11-21T06:29:30;7.10;99.90
13572;DHT22;6857;53.484;10.216;2023-11-21T06:31:57;7.10;99.90
13572;DHT22;6857;53.484;10.216;2023-11-21T06:34:23;7.10;99.90
13572;DHT22;6857;53.484;10.216;2023-11-21T06:36:49;7.10;99.90
13572;DHT22;6857;53.484;10.216;2023-11-21T06:39:14;7.10;99.90
13572;DHT22;6857;53.484;10.216;2023-11-21T06:41:42;7.10;99.90
13572;DHT22;6857;53.484;10.216;2023-11-21T06:44:08;7.10;99.90
13572;DHT22;6857;53.484;10.216;2023-11-21T06:46:34;7.10;99.90
13572;DHT22;6857;53.484;10.216;2023-11-21T06:48:59;7.10;99.90
13572;DHT22;6857;53.484;10.216;2023-11-21T06:51:25;7.10;99.90
13572;DHT22;6857;53.484;10.216;2023-11-21T06:53:50;7.10;99.90
13572;DHT22;6857;53.484;10.216;2023-11-21T06:56:17;7.10;99.90
13572;DHT22;6857;53.484;10.216;2023-11-21T06:58:44;7.10;99.90
13572;DHT22;6857;53.484;10.216;2023-11-21T07:01:11;7.10;99.90
13572;DHT22;6857;53.484;10.216;2023-11-21T07:03:36;7.20;99.90
13572;DHT22;6857;53.484;10.216;2023-11-21T07:06:03;7.10;99.90
13572;DHT22;6857;53.484;10.216;2023-11-21T07:08:28;7.20;99.90
13572;DHT22;6857;53.484;10.216;2023-11-21T07:10:54;7.20;99.90
13572;DHT22;6857;53.484;10.216;2023-11-21T07:13:19;7.20;99.90
13572;DHT22;6857;53.484;10.216;2023-11-21T07:15:45;7.20;99.90
13572;DHT22;6857;53.484;10.216;2023-11-21T07:18:10;7.10;99.90
13572;DHT22;6857;53.484;10.216;2023-11-21T07:20:36;7.10;99.90
13572;DHT22;6857;53.484;10.216;2023-11-21T07:23:02;7.10;99.90
13572;DHT22;6857;53.484;10.216;2023-11-21T07:25:29;7.10;99.90
13572;DHT22;6857;53.484;10.216;2023-11-21T07:27:54;7.10;99.90
13572;DHT22;6857;53.484;10.216;2023-11-21T07:30:20;7.10;99.90
13572;DHT22;6857;53.484;10.216;2023-11-21T07:32:48;7.10;99.90
13572;DHT22;6857;53.484;10.216;2023-11-21T07:35:13;7.10;99.90
13572;DHT22;6857;53.484;10.216;2023-11-21T07:37:39;7.10;99.90
13572;DHT22;6857;53.484;10.216;2023-11-21T07:40:05;7.10;99.90
13572;DHT22;6857;53.484;10.216;2023-11-21T07:42:34;7.10;99.90
13572;DHT22;6857;53.484;10.216;2023-11-21T07:44:59;7.10;99.90
13572;DHT22;6857;53.484;10.216;2023-11-21T07:47:25;7.10;99.90
13572;DHT22;6857;53.484;10.216;2023-11-21T07:49:53;7.10;99.90
13572;DHT22;6857;53.484;10.216;2023-11-21T07:52:18;7.10;99.90
13572;DHT22;6857;53.484;10.216;2023-11-21T07:54:46;7.20;99.90
13572;DHT22;6857;53.484;10.216;2023-11-21T07:57:12;7.20;99.90
13572;DHT22;6857;53.484;10.216;2023-11-21T07:59:39;7.30;99.90
13572;DHT22;6857;53.484;10.216;2023-11-21T08:02:06;7.20;99.90
13572;DHT22;6857;53.484;10.216;2023-11-21T08:04:32;7.30;99.90
13572;DHT22;6857;53.484;10.216;2023-11-21T08:06:58;7.30;99.90
13572;DHT22;6857;53.484;10.216;2023-11-21T08:09:23;7.30;99.90
13572;DHT22;6857;53.484;10.216;2023-11-21T08:11:49;7.40;99.90
13572;DHT22;6857;53.484;10.216;2023-11-21T08:14:15;7.40;99.90
13572;DHT22;6857;53.484;10.216;2023-11-21T08:16:41;7.30;99.90
13572;DHT22;6857;53.484;10.216;2023-11-21T08:19:07;7.30;99.90
13572;DHT22;6857;53.484;10.216;2023-11-21T08:21:34;7.30;99.90
13572;DHT22;6857;53.484;10.216;2023-11-21T08:23:59;7.40;99.90
13572;DHT22;6857;53.484;10.216;2023-11-21T08:26:25;7.40;99.90
13572;DHT22;6857;53.484;10.216;2023-11-21T08:28:51;7.50;99.90
13572;DHT22;6857;53.484;10.216;2023-11-21T08:31:28;7.50;99.90
13572;DHT22;6857;53.484;10.216;2023-11-21T08:33:54;7.60;99.90
13572;DHT22;6857;53.484;10.216;2023-11-21T08:36:21;7.60;99.90
13572;DHT22;6857;53.484;10.216;2023-11-21T08:38:48;7.60;99.90
13572;DHT22;6857;53.484;10.216;2023-11-21T08:41:14;7.60;99.90
13572;DHT22;6857;53.484;10.216;2023-11-21T08:43:41;7.50;99.90
13572;DHT22;6857;53.484;10.216;2023-11-21T08:46:07;7.60;99.90
13572;DHT22;6857;53.484;10.216;2023-11-21T08:48:36;7.60;99.90
13572;DHT22;6857;53.484;10.216;2023-11-21T08:51:03;7.60;99.90
13572;DHT22;6857;53.484;10.216;2023-11-21T08:53:29;7.70;99.90
13572;DHT22;6857;53.484;10.216;2023-11-21T08:55:56;7.70;99.90
13572;DHT22;6857;53.484;10.216;2023-11-21T08:58:22;7.70;99.90
13572;DHT22;6857;53.484;10.216;2023-11-21T09:00:47;7.70;99.90
13572;DHT22;6857;53.484;10.216;2023-11-21T09:03:13;7.70;99.90
13572;DHT22;6857;53.484;10.216;2023-11-21T09:05:39;7.70;99.90
13572;DHT22;6857;53.484;10.216;2023-11-21T09:08:05;7.70;99.90
13572;DHT22;6857;53.484;10.216;2023-11-21T09:10:31;7.70;99.90
13572;DHT22;6857;53.484;10.216;2023-11-21T09:12:57;7.80;99.90
13572;DHT22;6857;53.484;10.216;2023-11-21T09:15:24;7.70;99.90
13572;DHT22;6857;53.484;10.216;2023-11-21T09:17:50;7.70;99.90
13572;DHT22;6857;53.484;10.216;2023-11-21T09:20:16;7.70;99.90
13572;DHT22;6857;53.484;10.216;2023-11-21T09:22:41;7.70;99.90
13572;DHT22;6857;53.484;10.216;2023-11-21T09:25:07;7.70;99.90
13572;DHT22;6857;53.484;10.216;2023-11-21T09:27:34;7.70;99.90
13572;DHT22;6857;53.484;10.216;2023-11-21T09:30:01;7.80;99.90
13572;DHT22;6857;53.484;10.216;2023-11-21T09:32:26;7.80;99.90
13572;DHT22;6857;53.484;10.216;2023-11-21T09:34:52;7.90;99.90
13572;DHT22;6857;53.484;10.216;2023-11-21T09:37:20;7.90;99.90
13572;DHT22;6857;53.484;10.216;2023-11-21T09:39:46;7.90;99.90
13572;DHT22;6857;53.484;10.216;2023-11-21T09:42:17;7.90;99.90
13572;DHT22;6857;53.484;10.216;2023-11-21T09:45:09;7.90;99.90
13572;DHT22;6857;53.484;10.216;2023-11-21T09:47:39;7.90;99.90
13572;DHT22;6857;53.484;10.216;2023-11-21T09:50:05;7.90;99.90
13572;DHT22;6857;53.484;10.216;2023-11-21T09:52:48;8.00;99.90
13572;DHT22;6857;53.484;10.216;2023-11-21T09:55:17;8.00;99.90
13572;DHT22;6857;53.484;10.216;2023-11-21T09:57:45;7.90;99.90
13572;DHT22;6857;53.484;10.216;2023-11-21T10:00:11;8.00;99.90
13572;DHT22;6857;53.484;10.216;2023-11-21T10:02:38;8.00;99.90
13572;DHT22;6857;53.484;10.216;2023-11-21T10:05:06;8.00;99.90
13572;DHT22;6857;53.484;10.216;2023-11-21T10:07:34;8.10;99.90
13572;DHT22;6857;53.484;10.216;2023-11-21T10:10:01;8.00;99.90
13572;DHT22;6857;53.484;10.216;2023-11-21T10:12:28;8.10;99.90
13572;DHT22;6857;53.484;10.216;2023-11-21T10:14:55;8.00;99.90
13572;DHT22;6857;53.484;10.216;2023-11-21T10:17:24;8.00;99.90
13572;DHT22;6857;53.484;10.216;2023-11-21T10:19:52;8.10;99.90
13572;DHT22;6857;53.484;10.216;2023-11-21T10:22:20;8.10;99.90
13572;DHT22;6857;53.484;10.216;2023-11-21T10:24:46;8.10;99.90
13572;DHT22;6857;53.484;10.216;2023-11-21T10:27:12;8.10;99.90
13572;DHT22;6857;53.484;10.216;2023-11-21T10:29:39;8.10;99.90
13572;DHT22;6857;53.484;10.216;2023-11-21T10:32:05;8.20;99.90
13572;DHT22;6857;53.484;10.216;2023-11-21T10:34:31;8.20;99.90
13572;DHT22;6857;53.484;10.216;2023-11-21T10:36:57;8.10;99.90
13572;DHT22;6857;53.484;10.216;2023-11-21T10:39:23;8.10;99.90
13572;DHT22;6857;53.484;10.216;2023-11-21T10:41:53;8.20;99.90
13572;DHT22;6857;53.484;10.216;2023-11-21T10:44:18;8.30;99.90
13572;DHT22;6857;53.484;10.216;2023-11-21T10:46:50;8.40;99.90
13572;DHT22;6857;53.484;10.216;2023-11-21T10:49:22;8.50;99.90
13572;DHT22;6857;53.484;10.216;2023-11-21T10:51:50;8.60;99.90
13572;DHT22;6857;53.484;10.216;2023-11-21T10:54:22;8.60;99.90
13572;DHT22;6857;53.484;10.216;2023-11-21T10:56:49;8.50;99.90
13572;DHT22;6857;53.484;10.216;2023-11-21T10:59:17;8.50;99.90
13572;DHT22;6857;53.484;10.216;2023-11-21T11:01:45;8.60;99.90
13572;DHT22;6857;53.484;10.216;2023-11-21T11:04:11;8.60;99.90
13572;DHT22;6857;53.484;10.216;2023-11-21T11:06:46;8.50;99.90
13572;DHT22;6857;53.484;10.216;2023-11-21T11:09:16;8.50;99.90
13572;DHT22;6857;53.484;10.216;2023-11-21T11:11:42;8.50;99.90
13572;DHT22;6857;53.484;10.216;2023-11-21T11:14:11;8.60;99.90
13572;DHT22;6857;53.484;10.216;2023-11-21T11:16:39;8.60;99.90
13572;DHT22;6857;53.484;10.216;2023-11-21T11:19:09;8.60;99.90
13572;DHT22;6857;53.484;10.216;2023-11-21T11:32:43;8.30;99.90
13572;DHT22;6857;53.484;10.216;2023-11-21T11:35:23;8.30;99.90
13572;DHT22;6857;53.484;10.216;2023-11-21T11:37:50;8.40;99.90
13572;DHT22;6857;53.484;10.216;2023-11-21T11:40:16;8.40;99.90
13572;DHT22;6857;53.484;10.216;2023-11-21T11:43:01;8.40;99.90
13572;DHT22;6857;53.484;10.216;2023-11-21T11:45:34;8.40;99.90
13572;DHT22;6857;53.484;10.216;2023-11-21T11:48:01;8.50;99.90
13572;DHT22;6857;53.484;10.216;2023-11-21T11:50:27;8.60;99.90
13572;DHT22;6857;53.484;10.216;2023-11-21T11:52:53;8.60;99.90
13572;DHT22;6857;53.484;10.216;2023-11-21T11:55:24;8.70;99.90
13572;DHT22;6857;53.484;10.216;2023-11-21T11:57:50;8.70;99.90
13572;DHT22;6857;53.484;10.216;2023-11-21T12:00:17;8.70;99.90
13572;DHT22;6857;53.484;10.216;2023-11-21T12:02:49;8.60;99.90
13572;DHT22;6857;53.484;10.216;2023-11-21T12:05:21;8.60;99.90
13572;DHT22;6857;53.484;10.216;2023-11-21T12:07:52;8.50;99.90
13572;DHT22;6857;53.484;10.216;2023-11-21T12:10:24;8.50;99.90
13572;DHT22;6857;53.484;10.216;2023-11-21T12:13:01;8.50;99.90
13572;DHT22;6857;53.484;10.216;2023-11-21T12:15:27;8.50;99.90
13572;DHT22;6857;53.484;10.216;2023-11-21T12:17:57;8.40;99.90
13572;DHT22;6857;53.484;10.216;2023-11-21T12:20:24;8.40;99.90
13572;DHT22;6857;53.484;10.216;2023-11-21T12:22:51;8.40;99.90
13572;DHT22;6857;53.484;10.216;2023-11-21T12:25:22;8.40;99.90
13572;DHT22;6857;53.484;10.216;2023-11-21T12:27:52;8.30;99.90
13572;DHT22;6857;53.484;10.216;2023-11-21T12:30:22;8.30;99.90
13572;DHT22;6857;53.484;10.216;2023-11-21T12:32:53;8.30;99.90
13572;DHT22;6857;53.484;10.216;2023-11-21T12:35:19;8.30;99.90
13572;DHT22;6857;53.484;10.216;2023-11-21T12:37:46;8.40;99.90
13572;DHT22;6857;53.484;10.216;2023-11-21T12:40:13;8.40;99.90
13572;DHT22;6857;53.484;10.216;2023-11-21T12:42:45;8.30;99.90
13572;DHT22;6857;53.484;10.216;2023-11-21T12:47:50;8.30;99.90
13572;DHT22;6857;53.484;10.216;2023-11-21T12:50:20;8.20;99.90
13572;DHT22;6857;53.484;10.216;2023-11-21T12:52:50;8.10;99.90
13572;DHT22;6857;53.484;10.216;2023-11-21T12:55:20;8.10;99.90
13572;DHT22;6857;53.484;10.216;2023-11-21T12:57:50;8.10;99.90
13572;DHT22;6857;53.484;10.216;2023-11-21T13:00:45;8.10;99.90
13572;DHT22;6857;53.484;10.216;2023-11-21T13:03:12;8.10;99.90
13572;DHT22;6857;53.484;10.216;2023-11-21T13:05:42;8.00;99.90
13572;DHT22;6857;53.484;10.216;2023-11-21T13:08:10;7.90;99.90
13572;DHT22;6857;53.484;10.216;2023-11-21T13:10:43;7.90;99.90
13572;DHT22;6857;53.484;10.216;2023-11-21T13:13:11;7.90;99.90
13572;DHT22;6857;53.484;10.216;2023-11-21T13:15:50;7.90;99.90
13572;DHT22;6857;53.484;10.216;2023-11-21T13:18:16;7.80;99.90
13572;DHT22;6857;53.484;10.216;2023-11-21T13:20:43;7.80;99.90
13572;DHT22;6857;53.484;10.216;2023-11-21T13:23:10;7.80;99.90
13572;DHT22;6857;53.484;10.216;2023-11-21T13:25:41;7.70;99.90
13572;DHT22;6857;53.484;10.216;2023-11-21T13:28:07;7.70;99.90
13572;DHT22;6857;53.484;10.216;2023-11-21T13:30:33;7.60;99.90
13572;DHT22;6857;53.484;10.216;2023-11-21T13:33:05;7.60;99.90
13572;DHT22;6857;53.484;10.216;2023-11-21T13:35:36;7.60;99.90
13572;DHT22;6857;53.484;10.216;2023-11-21T13:38:11;7.60;99.90
13572;DHT22;6857;53.484;10.216;2023-11-21T13:40:38;7.50;99.90
13572;DHT22;6857;53.484;10.216;2023-11-21T13:43:12;7.50;99.90
13572;DHT22;6857;53.484;10.216;2023-11-21T13:45:39;7.50;99.90
13572;DHT22;6857;53.484;10.216;2023-11-21T13:48:08;7.40;99.90
13572;DHT22;6857;53.484;10.216;2023-11-21T13:50:36;7.40;99.90
13572;DHT22;6857;53.484;10.216;2023-11-21T13:53:03;7.40;99.90
13572;DHT22;6857;53.484;10.216;2023-11-21T13:55:36;7.40;99.90
13572;DHT22;6857;53.484;10.216;2023-11-21T13:58:02;7.50;99.90
13572;DHT22;6857;53.484;10.216;2023-11-21T14:00:29;7.50;99.90
13572;DHT22;6857;53.484;10.216;2023-11-21T14:03:10;7.50;99.90
13572;DHT22;6857;53.484;10.216;2023-11-21T14:05:43;7.50;99.90
13572;DHT22;6857;53.484;10.216;2023-11-21T14:08:10;7.50;99.90
13572;DHT22;6857;53.484;10.216;2023-11-21T14:10:37;7.50;99.90
13572;DHT22;6857;53.484;10.216;2023-11-21T14:13:08;7.50;99.90
13572;DHT22;6857;53.484;10.216;2023-11-21T14:15:36;7.50;99.90
13572;DHT22;6857;53.484;10.216;2023-11-21T14:18:07;7.50;99.90
13572;DHT22;6857;53.484;10.216;2023-11-21T14:20:36;7.50;99.90
13572;DHT22;6857;53.484;10.216;2023-11-21T14:23:04;7.40;99.90
13572;DHT22;6857;53.484;10.216;2023-11-21T14:25:33;7.40;99.90
13572;DHT22;6857;53.484;10.216;2023-11-21T14:27:59;7.50;99.90
13572;DHT22;6857;53.484;10.216;2023-11-21T14:30:25;7.40;99.90
13572;DHT22;6857;53.484;10.216;2023-11-21T14:32:53;7.20;99.90
13572;DHT22;6857;53.484;10.216;2023-11-21T14:35:21;7.10;99.90
13572;DHT22;6857;53.484;10.216;2023-11-21T14:37:47;7.10;99.90
13572;DHT22;6857;53.484;10.216;2023-11-21T14:40:12;7.00;99.90
13572;DHT22;6857;53.484;10.216;2023-11-21T14:42:43;7.00;99.90
13572;DHT22;6857;53.484;10.216;2023-11-21T14:45:12;6.90;99.90
13572;DHT22;6857;53.484;10.216;2023-11-21T14:47:40;6.90;99.90
13572;DHT22;6857;53.484;10.216;2023-11-21T14:50:11;6.90;99.90
13572;DHT22;6857;53.484;10.216;2023-11-21T14:53:09;7.00;99.90
13572;DHT22;6857;53.484;10.216;2023-11-21T14:55:35;6.90;99.90
13572;DHT22;6857;53.484;10.216;2023-11-21T14:58:17;6.90;99.90
13572;DHT22;6857;53.484;10.216;2023-11-21T15:00:58;7.00;99.90
13572;DHT22;6857;53.484;10.216;2023-11-21T15:03:28;7.00;99.90
13572;DHT22;6857;53.484;10.216;2023-11-21T15:06:03;7.00;99.90
13572;DHT22;6857;53.484;10.216;2023-11-21T15:08:49;7.00;99.90
13572;DHT22;6857;53.484;10.216;2023-11-21T15:11:21;6.90;99.90
13572;DHT22;6857;53.484;10.216;2023-11-21T15:13:53;6.80;99.90
13572;DHT22;6857;53.484;10.216;2023-11-21T15:16:19;6.80;99.90
13572;DHT22;6857;53.484;10.216;2023-11-21T15:18:44;6.80;99.90
13572;DHT22;6857;53.484;10.216;2023-11-21T15:21:10;6.80;99.90
13572;DHT22;6857;53.484;10.216;2023-11-21T15:23:37;6.70;99.90
13572;DHT22;6857;53.484;10.216;2023-11-21T15:26:04;6.60;99.90
13572;DHT22;6857;53.484;10.216;2023-11-21T15:28:30;6.50;99.90
13572;DHT22;6857;53.484;10.216;2023-11-21T15:30:57;6.50;99.90
13572;DHT22;6857;53.484;10.216;2023-11-21T15:33:23;6.50;99.90
13572;DHT22;6857;53.484;10.216;2023-11-21T15:35:48;6.50;99.90
13572;DHT22;6857;53.484;10.216;2023-11-21T15:38:14;6.50;99.90
13572;DHT22;6857;53.484;10.216;2023-11-21T15:40:39;6.50;99.90
13572;DHT22;6857;53.484;10.216;2023-11-21T15:43:05;6.60;99.90
13572;DHT22;6857;53.484;10.216;2023-11-21T15:45:32;6.50;99.90
13572;DHT22;6857;53.484;10.216;2023-11-21T15:47:58;6.50;99.90
13572;DHT22;6857;53.484;10.216;2023-11-21T15:50:23;6.50;99.90
13572;DHT22;6857;53.484;10.216;2023-11-21T15:52:50;6.50;99.90
13572;DHT22;6857;53.484;10.216;2023-11-21T15:55:15;6.50;99.90
13572;DHT22;6857;53.484;10.216;2023-11-21T15:57:43;6.40;99.90
13572;DHT22;6857;53.484;10.216;2023-11-21T16:00:09;6.50;99.90